sensor_id;sensor_type;location;lat;lon;timestamp;P1;durP1;ratioP1;P2;durP2;ratioP2
22768;SDS011;13001;51.968;5.918;2023-08-30T00:01:56;279.27;;;262.43;;
22768;SDS011;13001;51.968;5.918;2023-08-30T00:04:23;287.30;;;270.17;;
22768;SDS011;13001;51.968;5.918;2023-08-30T00:06:52;286.80;;;269.83;;
22768;SDS011;13001;51.968;5.918;2023-08-30T00:09:21;294.37;;;276.40;;
22768;SDS011;13001;51.968;5.918;2023-08-30T00:11:48;282.60;;;265.40;;
22768;SDS011;13001;51.968;5.918;2023-08-30T00:14:16;285.67;;;268.03;;
22768;SDS011;13001;51.968;5.918;2023-08-30T00:16:43;280.67;;;263.73;;
22768;SDS011;13001;51.968;5.918;2023-08-30T00:19:11;272.77;;;256.03;;
22768;SDS011;13001;51.968;5.918;2023-08-30T00:21:38;283.00;;;265.40;;
22768;SDS011;13001;51.968;5.918;2023-08-30T00:24:06;272.40;;;255.70;;
22768;SDS011;13001;51.968;5.918;2023-08-30T00:26:33;284.73;;;266.70;;
22768;SDS011;13001;51.968;5.918;2023-08-30T00:29:01;267.53;;;251.10;;
22768;SDS011;13001;51.968;5.918;2023-08-30T00:31:28;263.80;;;247.67;;
22768;SDS011;13001;51.968;5.918;2023-08-30T00:33:56;267.73;;;251.37;;
22768;SDS011;13001;51.968;5.918;2023-08-30T00:36:23;292.07;;;273.87;;
22768;SDS011;13001;51.968;5.918;2023-08-30T00:38:51;281.03;;;263.93;;
22768;SDS011;13001;51.968;5.918;2023-08-30T00:41:18;287.63;;;270.03;;
22768;SDS011;13001;51.968;5.918;2023-08-30T00:43:46;301.73;;;283.43;;
22768;SDS011;13001;51.968;5.918;2023-08-30T00:46:13;291.73;;;272.97;;
22768;SDS011;13001;51.968;5.918;2023-08-30T00:48:42;308.00;;;289.50;;
22768;SDS011;13001;51.968;5.918;2023-08-30T00:51:11;301.73;;;283.70;;
22768;SDS011;13001;51.968;5.918;2023-08-30T00:53:38;313.77;;;294.90;;
22768;SDS011;13001;51.968;5.918;2023-08-30T00:56:06;299.27;;;281.70;;
22768;SDS011;13001;51.968;5.918;2023-08-30T00:58:34;306.67;;;288.60;;
22768;SDS011;13001;51.968;5.918;2023-08-30T01:01:01;309.23;;;291.00;;
22768;SDS011;13001;51.968;5.918;2023-08-30T01:03:32;303.43;;;285.47;;
22768;SDS011;13001;51.968;5.918;2023-08-30T01:06:00;327.10;;;307.83;;
22768;SDS011;13001;51.968;5.918;2023-08-30T01:08:28;322.97;;;303.57;;
22768;SDS011;13001;51.968;5.918;2023-08-30T01:13:58;320.43;;;301.80;;
22768;SDS011;13001;51.968;5.918;2023-08-30T01:16:23;307.80;;;289.63;;
22768;SDS011;13001;51.968;5.918;2023-08-30T01:18:52;307.63;;;289.53;;
22768;SDS011;13001;51.968;5.918;2023-08-30T01:21:29;307.63;;;289.30;;
22768;SDS011;13001;51.968;5.918;2023-08-30T01:23:58;299.03;;;280.87;;
22768;SDS011;13001;51.968;5.918;2023-08-30T01:29:17;312.70;;;293.43;;
22768;SDS011;13001;51.968;5.918;2023-08-30T01:31:47;302.63;;;284.17;;
22768;SDS011;13001;51.968;5.918;2023-08-30T01:34:16;299.73;;;281.47;;
22768;SDS011;13001;51.968;5.918;2023-08-30T01:36:44;283.17;;;265.77;;
22768;SDS011;13001;51.968;5.918;2023-08-30T01:39:12;297.67;;;279.23;;
22768;SDS011;13001;51.968;5.918;2023-08-30T01:41:41;295.17;;;277.17;;
22768;SDS011;13001;51.968;5.918;2023-08-30T01:44:10;305.23;;;286.50;;
22768;SDS011;13001;51.968;5.918;2023-08-30T01:46:40;284.10;;;266.70;;
22768;SDS011;13001;51.968;5.918;2023-08-30T01:49:08;281.30;;;263.80;;
22768;SDS011;13001;51.968;5.918;2023-08-30T01:51:37;274.47;;;257.97;;
22768;SDS011;13001;51.968;5.918;2023-08-30T01:54:06;276.73;;;259.70;;
22768;SDS011;13001;51.968;5.918;2023-08-30T01:56:35;258.33;;;242.90;;
22768;SDS011;13001;51.968;5.918;2023-08-30T01:59:03;274.37;;;257.97;;
22768;SDS011;13001;51.968;5.918;2023-08-30T02:01:30;280.17;;;263.53;;
22768;SDS011;13001;51.968;5.918;2023-08-30T02:03:58;278.47;;;261.40;;
22768;SDS011;13001;51.968;5.918;2023-08-30T02:06:28;259.47;;;243.87;;
22768;SDS011;13001;51.968;5.918;2023-08-30T02:09:33;242.83;;;228.40;;
22768;SDS011;13001;51.968;5.918;2023-08-30T02:11:59;224.97;;;211.80;;
22768;SDS011;13001;51.968;5.918;2023-08-30T02:14:29;228.07;;;214.73;;
22768;SDS011;13001;51.968;5.918;2023-08-30T02:16:59;237.97;;;223.90;;
22768;SDS011;13001;51.968;5.918;2023-08-30T02:19:26;218.13;;;205.33;;
22768;SDS011;13001;51.968;5.918;2023-08-30T02:21:54;226.17;;;212.93;;
22768;SDS011;13001;51.968;5.918;2023-08-30T02:24:21;230.63;;;216.90;;
22768;SDS011;13001;51.968;5.918;2023-08-30T02:26:49;224.73;;;211.53;;
22768;SDS011;13001;51.968;5.918;2023-08-30T02:29:17;231.67;;;218.07;;
22768;SDS011;13001;51.968;5.918;2023-08-30T02:31:44;236.13;;;222.27;;
22768;SDS011;13001;51.968;5.918;2023-08-30T02:34:14;227.43;;;214.23;;
22768;SDS011;13001;51.968;5.918;2023-08-30T02:36:43;222.40;;;209.60;;
22768;SDS011;13001;51.968;5.918;2023-08-30T02:39:11;230.43;;;217.07;;
22768;SDS011;13001;51.968;5.918;2023-08-30T02:41:41;224.17;;;210.97;;
22768;SDS011;13001;51.968;5.918;2023-08-30T02:44:08;229.43;;;215.97;;
22768;SDS011;13001;51.968;5.918;2023-08-30T02:46:40;231.60;;;217.80;;
22768;SDS011;13001;51.968;5.918;2023-08-30T02:49:08;249.60;;;234.53;;
22768;SDS011;13001;51.968;5.918;2023-08-30T02:51:37;253.70;;;238.53;;
22768;SDS011;13001;51.968;5.918;2023-08-30T02:54:04;243.60;;;228.90;;
22768;SDS011;13001;51.968;5.918;2023-08-30T02:56:32;262.17;;;246.33;;
22768;SDS011;13001;51.968;5.918;2023-08-30T02:59:00;240.23;;;225.77;;
22768;SDS011;13001;51.968;5.918;2023-08-30T03:01:27;222.73;;;209.63;;
22768;SDS011;13001;51.968;5.918;2023-08-30T03:03:55;231.63;;;217.93;;
22768;SDS011;13001;51.968;5.918;2023-08-30T03:06:22;233.03;;;219.47;;
22768;SDS011;13001;51.968;5.918;2023-08-30T03:08:50;224.70;;;210.87;;
22768;SDS011;13001;51.968;5.918;2023-08-30T03:11:17;245.03;;;230.37;;
22768;SDS011;13001;51.968;5.918;2023-08-30T03:13:45;229.40;;;215.70;;
22768;SDS011;13001;51.968;5.918;2023-08-30T03:16:13;231.67;;;217.80;;
22768;SDS011;13001;51.968;5.918;2023-08-30T03:18:43;272.93;;;256.93;;
22768;SDS011;13001;51.968;5.918;2023-08-30T03:21:11;277.73;;;261.03;;
22768;SDS011;13001;51.968;5.918;2023-08-30T03:23:38;299.47;;;281.77;;
22768;SDS011;13001;51.968;5.918;2023-08-30T03:26:08;295.87;;;278.33;;
22768;SDS011;13001;51.968;5.918;2023-08-30T03:28:39;313.03;;;294.40;;
22768;SDS011;13001;51.968;5.918;2023-08-30T03:31:11;309.87;;;291.57;;
22768;SDS011;13001;51.968;5.918;2023-08-30T03:33:44;310.27;;;292.10;;
22768;SDS011;13001;51.968;5.918;2023-08-30T03:36:13;323.50;;;304.37;;
22768;SDS011;13001;51.968;5.918;2023-08-30T03:38:42;309.80;;;291.63;;
22768;SDS011;13001;51.968;5.918;2023-08-30T03:41:11;294.63;;;277.07;;
22768;SDS011;13001;51.968;5.918;2023-08-30T03:43:39;299.83;;;281.77;;
22768;SDS011;13001;51.968;5.918;2023-08-30T03:46:06;308.60;;;290.03;;
22768;SDS011;13001;51.968;5.918;2023-08-30T03:48:35;305.00;;;286.80;;
22768;SDS011;13001;51.968;5.918;2023-08-30T03:51:02;308.80;;;290.57;;
22768;SDS011;13001;51.968;5.918;2023-08-30T03:53:30;312.97;;;294.20;;
22768;SDS011;13001;51.968;5.918;2023-08-30T03:55:57;312.37;;;294.07;;
22768;SDS011;13001;51.968;5.918;2023-08-30T03:58:25;307.77;;;289.63;;
22768;SDS011;13001;51.968;5.918;2023-08-30T04:00:53;330.87;;;310.90;;
22768;SDS011;13001;51.968;5.918;2023-08-30T04:03:20;331.40;;;311.70;;
22768;SDS011;13001;51.968;5.918;2023-08-30T04:05:48;320.07;;;300.80;;
22768;SDS011;13001;51.968;5.918;2023-08-30T04:08:23;314.60;;;296.00;;
22768;SDS011;13001;51.968;5.918;2023-08-30T04:10:52;330.63;;;310.87;;
22768;SDS011;13001;51.968;5.918;2023-08-30T04:13:20;317.00;;;298.03;;
22768;SDS011;13001;51.968;5.918;2023-08-30T04:15:47;321.13;;;301.97;;
22768;SDS011;13001;51.968;5.918;2023-08-30T04:18:15;342.20;;;321.50;;
22768;SDS011;13001;51.968;5.918;2023-08-30T04:20:44;334.20;;;314.00;;
22768;SDS011;13001;51.968;5.918;2023-08-30T04:23:13;325.10;;;305.77;;
22768;SDS011;13001;51.968;5.918;2023-08-30T04:25:41;325.53;;;305.97;;
22768;SDS011;13001;51.968;5.918;2023-08-30T04:28:08;345.97;;;325.03;;
22768;SDS011;13001;51.968;5.918;2023-08-30T04:30:36;344.77;;;323.90;;
22768;SDS011;13001;51.968;5.918;2023-08-30T04:33:04;331.60;;;312.00;;
22768;SDS011;13001;51.968;5.918;2023-08-30T04:35:32;329.87;;;309.43;;
22768;SDS011;13001;51.968;5.918;2023-08-30T04:38:00;345.57;;;324.73;;
22768;SDS011;13001;51.968;5.918;2023-08-30T04:40:29;355.67;;;334.00;;
22768;SDS011;13001;51.968;5.918;2023-08-30T04:42:58;353.07;;;331.70;;
22768;SDS011;13001;51.968;5.918;2023-08-30T04:45:26;346.43;;;325.10;;
22768;SDS011;13001;51.968;5.918;2023-08-30T04:47:53;334.83;;;314.77;;
22768;SDS011;13001;51.968;5.918;2023-08-30T04:50:21;339.67;;;319.13;;
22768;SDS011;13001;51.968;5.918;2023-08-30T04:52:49;334.97;;;314.83;;
22768;SDS011;13001;51.968;5.918;2023-08-30T04:55:16;335.93;;;315.70;;
22768;SDS011;13001;51.968;5.918;2023-08-30T04:57:44;316.07;;;297.47;;
22768;SDS011;13001;51.968;5.918;2023-08-30T05:00:13;329.30;;;309.47;;
22768;SDS011;13001;51.968;5.918;2023-08-30T05:02:41;313.00;;;294.53;;
22768;SDS011;13001;51.968;5.918;2023-08-30T05:05:11;320.67;;;301.30;;
22768;SDS011;13001;51.968;5.918;2023-08-30T05:07:41;315.53;;;296.67;;
22768;SDS011;13001;51.968;5.918;2023-08-30T05:10:08;303.27;;;285.00;;
22768;SDS011;13001;51.968;5.918;2023-08-30T05:12:36;317.73;;;298.47;;
22768;SDS011;13001;51.968;5.918;2023-08-30T05:15:03;310.60;;;292.03;;
22768;SDS011;13001;51.968;5.918;2023-08-30T05:17:31;312.90;;;294.03;;
22768;SDS011;13001;51.968;5.918;2023-08-30T05:20:00;343.23;;;322.80;;
22768;SDS011;13001;51.968;5.918;2023-08-30T05:22:28;336.80;;;316.53;;
22768;SDS011;13001;51.968;5.918;2023-08-30T05:24:56;338.57;;;317.90;;
22768;SDS011;13001;51.968;5.918;2023-08-30T05:27:24;310.40;;;292.13;;
22768;SDS011;13001;51.968;5.918;2023-08-30T05:29:51;288.27;;;271.40;;
22768;SDS011;13001;51.968;5.918;2023-08-30T05:32:19;289.03;;;271.83;;
22768;SDS011;13001;51.968;5.918;2023-08-30T05:34:46;261.93;;;246.80;;
22768;SDS011;13001;51.968;5.918;2023-08-30T05:37:14;263.53;;;248.17;;
22768;SDS011;13001;51.968;5.918;2023-08-30T05:39:41;237.17;;;223.07;;
22768;SDS011;13001;51.968;5.918;2023-08-30T05:42:09;201.07;;;189.17;;
22768;SDS011;13001;51.968;5.918;2023-08-30T05:44:36;197.83;;;186.23;;
22768;SDS011;13001;51.968;5.918;2023-08-30T05:47:04;221.47;;;208.27;;
22768;SDS011;13001;51.968;5.918;2023-08-30T05:49:31;262.07;;;246.73;;
22768;SDS011;13001;51.968;5.918;2023-08-30T05:51:59;308.87;;;290.30;;
22768;SDS011;13001;51.968;5.918;2023-08-30T05:54:26;326.63;;;306.97;;
22768;SDS011;13001;51.968;5.918;2023-08-30T05:56:56;331.40;;;311.20;;
22768;SDS011;13001;51.968;5.918;2023-08-30T05:59:23;331.02;;;310.85;;
22768;SDS011;13001;51.968;5.918;2023-08-30T06:01:51;341.70;;;321.32;;
22768;SDS011;13001;51.968;5.918;2023-08-30T06:04:18;356.82;;;335.32;;
22768;SDS011;13001;51.968;5.918;2023-08-30T06:06:46;344.68;;;324.23;;
22768;SDS011;13001;51.968;5.918;2023-08-30T06:09:13;337.77;;;317.25;;
22768;SDS011;13001;51.968;5.918;2023-08-30T06:11:41;347.97;;;326.80;;
22768;SDS011;13001;51.968;5.918;2023-08-30T06:14:08;344.40;;;322.93;;
22768;SDS011;13001;51.968;5.918;2023-08-30T06:16:36;363.77;;;341.40;;
22768;SDS011;13001;51.968;5.918;2023-08-30T06:19:03;357.97;;;335.60;;
22768;SDS011;13001;51.968;5.918;2023-08-30T06:21:31;348.82;;;327.20;;
22768;SDS011;13001;51.968;5.918;2023-08-30T06:24:00;358.05;;;335.40;;
22768;SDS011;13001;51.968;5.918;2023-08-30T06:26:27;360.32;;;337.68;;
22768;SDS011;13001;51.968;5.918;2023-08-30T06:28:55;363.27;;;340.98;;
22768;SDS011;13001;51.968;5.918;2023-08-30T06:31:22;356.93;;;335.17;;
22768;SDS011;13001;51.968;5.918;2023-08-30T06:33:50;363.77;;;341.43;;
22768;SDS011;13001;51.968;5.918;2023-08-30T06:36:17;358.20;;;336.00;;
22768;SDS011;13001;51.968;5.918;2023-08-30T06:38:46;338.53;;;317.47;;
22768;SDS011;13001;51.968;5.918;2023-08-30T06:41:14;317.37;;;297.97;;
22768;SDS011;13001;51.968;5.918;2023-08-30T06:43:41;300.77;;;282.40;;
22768;SDS011;13001;51.968;5.918;2023-08-30T06:46:09;271.57;;;255.13;;
22768;SDS011;13001;51.968;5.918;2023-08-30T06:48:36;250.87;;;235.17;;
22768;SDS011;13001;51.968;5.918;2023-08-30T06:51:04;240.50;;;225.97;;
22768;SDS011;13001;51.968;5.918;2023-08-30T06:53:31;218.70;;;205.53;;
22768;SDS011;13001;51.968;5.918;2023-08-30T06:55:59;244.70;;;230.00;;
22768;SDS011;13001;51.968;5.918;2023-08-30T06:58:27;222.80;;;209.10;;
22768;SDS011;13001;51.968;5.918;2023-08-30T07:00:56;223.90;;;210.20;;
22768;SDS011;13001;51.968;5.918;2023-08-30T07:03:25;221.77;;;208.23;;
22768;SDS011;13001;51.968;5.918;2023-08-30T07:05:53;226.70;;;212.60;;
22768;SDS011;13001;51.968;5.918;2023-08-30T07:08:20;250.03;;;234.50;;
22768;SDS011;13001;51.968;5.918;2023-08-30T07:10:48;237.97;;;223.47;;
22768;SDS011;13001;51.968;5.918;2023-08-30T07:13:15;261.30;;;245.60;;
22768;SDS011;13001;51.968;5.918;2023-08-30T07:15:43;238.63;;;224.37;;
22768;SDS011;13001;51.968;5.918;2023-08-30T07:18:10;234.77;;;220.73;;
22768;SDS011;13001;51.968;5.918;2023-08-30T07:20:38;238.03;;;223.70;;
22768;SDS011;13001;51.968;5.918;2023-08-30T07:23:06;255.33;;;240.00;;
22768;SDS011;13001;51.968;5.918;2023-08-30T07:25:33;236.57;;;222.60;;
22768;SDS011;13001;51.968;5.918;2023-08-30T07:28:03;215.57;;;202.70;;
22768;SDS011;13001;51.968;5.918;2023-08-30T07:30:31;234.50;;;220.43;;
22768;SDS011;13001;51.968;5.918;2023-08-30T07:33:00;212.10;;;199.93;;
22768;SDS011;13001;51.968;5.918;2023-08-30T07:35:29;206.43;;;194.00;;
22768;SDS011;13001;51.968;5.918;2023-08-30T07:37:57;212.33;;;199.97;;
22768;SDS011;13001;51.968;5.918;2023-08-30T07:40:24;207.33;;;194.97;;
22768;SDS011;13001;51.968;5.918;2023-08-30T07:42:53;211.13;;;198.47;;
22768;SDS011;13001;51.968;5.918;2023-08-30T07:45:21;220.40;;;207.43;;
22768;SDS011;13001;51.968;5.918;2023-08-30T07:47:48;231.03;;;217.10;;
22768;SDS011;13001;51.968;5.918;2023-08-30T07:50:17;214.37;;;201.23;;
22768;SDS011;13001;51.968;5.918;2023-08-30T07:52:45;235.73;;;221.60;;
22768;SDS011;13001;51.968;5.918;2023-08-30T07:55:12;226.60;;;212.80;;
22768;SDS011;13001;51.968;5.918;2023-08-30T07:57:40;230.07;;;216.30;;
22768;SDS011;13001;51.968;5.918;2023-08-30T08:00:08;253.47;;;238.33;;
22768;SDS011;13001;51.968;5.918;2023-08-30T08:02:36;269.60;;;253.57;;
22768;SDS011;13001;51.968;5.918;2023-08-30T08:05:03;263.20;;;247.77;;
22768;SDS011;13001;51.968;5.918;2023-08-30T08:07:31;266.33;;;250.60;;
22768;SDS011;13001;51.968;5.918;2023-08-30T08:09:58;284.50;;;267.33;;
22768;SDS011;13001;51.968;5.918;2023-08-30T08:12:26;280.17;;;263.83;;
22768;SDS011;13001;51.968;5.918;2023-08-30T08:14:54;276.97;;;260.77;;
22768;SDS011;13001;51.968;5.918;2023-08-30T08:17:21;268.37;;;252.30;;
22768;SDS011;13001;51.968;5.918;2023-08-30T08:19:49;295.20;;;277.80;;
22768;SDS011;13001;51.968;5.918;2023-08-30T08:22:16;265.53;;;249.60;;
22768;SDS011;13001;51.968;5.918;2023-08-30T08:24:44;254.67;;;239.33;;
22768;SDS011;13001;51.968;5.918;2023-08-30T08:27:15;259.43;;;244.07;;
22768;SDS011;13001;51.968;5.918;2023-08-30T08:29:42;207.80;;;195.30;;
22768;SDS011;13001;51.968;5.918;2023-08-30T08:32:10;208.63;;;196.13;;
22768;SDS011;13001;51.968;5.918;2023-08-30T08:34:37;184.43;;;173.47;;
22768;SDS011;13001;51.968;5.918;2023-08-30T08:37:06;176.83;;;166.53;;
22768;SDS011;13001;51.968;5.918;2023-08-30T08:39:34;188.67;;;177.53;;
22768;SDS011;13001;51.968;5.918;2023-08-30T08:42:02;168.13;;;158.07;;
22768;SDS011;13001;51.968;5.918;2023-08-30T08:44:31;173.93;;;163.03;;
22768;SDS011;13001;51.968;5.918;2023-08-30T08:47:00;169.27;;;159.17;;
22768;SDS011;13001;51.968;5.918;2023-08-30T08:49:28;171.57;;;161.43;;
22768;SDS011;13001;51.968;5.918;2023-08-30T08:51:57;178.13;;;167.40;;
22768;SDS011;13001;51.968;5.918;2023-08-30T08:54:25;193.10;;;181.50;;
22768;SDS011;13001;51.968;5.918;2023-08-30T08:56:53;204.57;;;192.43;;
22768;SDS011;13001;51.968;5.918;2023-08-30T08:59:21;188.70;;;177.30;;
22768;SDS011;13001;51.968;5.918;2023-08-30T09:01:50;206.07;;;193.97;;
22768;SDS011;13001;51.968;5.918;2023-08-30T09:04:18;185.00;;;174.00;;
22768;SDS011;13001;51.968;5.918;2023-08-30T09:06:46;190.90;;;179.73;;
22768;SDS011;13001;51.968;5.918;2023-08-30T09:09:14;179.10;;;168.33;;
22768;SDS011;13001;51.968;5.918;2023-08-30T09:11:42;179.57;;;168.93;;
22768;SDS011;13001;51.968;5.918;2023-08-30T09:14:10;179.80;;;169.10;;
22768;SDS011;13001;51.968;5.918;2023-08-30T09:16:37;216.20;;;203.50;;
22768;SDS011;13001;51.968;5.918;2023-08-30T09:19:06;210.20;;;198.03;;
22768;SDS011;13001;51.968;5.918;2023-08-30T09:21:35;202.23;;;190.47;;
22768;SDS011;13001;51.968;5.918;2023-08-30T09:24:04;200.20;;;187.73;;
22768;SDS011;13001;51.968;5.918;2023-08-30T09:26:33;196.53;;;185.03;;
22768;SDS011;13001;51.968;5.918;2023-08-30T09:29:03;197.73;;;186.17;;
22768;SDS011;13001;51.968;5.918;2023-08-30T09:31:35;213.13;;;200.67;;
22768;SDS011;13001;51.968;5.918;2023-08-30T09:34:06;191.97;;;180.80;;
22768;SDS011;13001;51.968;5.918;2023-08-30T09:36:34;198.23;;;186.53;;
22768;SDS011;13001;51.968;5.918;2023-08-30T09:39:03;189.30;;;178.47;;
22768;SDS011;13001;51.968;5.918;2023-08-30T09:41:32;183.67;;;173.10;;
22768;SDS011;13001;51.968;5.918;2023-08-30T09:44:05;191.80;;;180.30;;
22768;SDS011;13001;51.968;5.918;2023-08-30T09:46:41;201.70;;;189.90;;
22768;SDS011;13001;51.968;5.918;2023-08-30T09:49:11;200.33;;;188.87;;
22768;SDS011;13001;51.968;5.918;2023-08-30T09:51:39;173.50;;;163.27;;
22768;SDS011;13001;51.968;5.918;2023-08-30T09:54:13;171.73;;;161.60;;
22768;SDS011;13001;51.968;5.918;2023-08-30T09:56:47;173.03;;;162.80;;
22768;SDS011;13001;51.968;5.918;2023-08-30T09:59:16;161.67;;;152.20;;
22768;SDS011;13001;51.968;5.918;2023-08-30T10:01:44;179.57;;;169.27;;
22768;SDS011;13001;51.968;5.918;2023-08-30T10:04:15;192.80;;;181.73;;
22768;SDS011;13001;51.968;5.918;2023-08-30T10:06:44;182.57;;;171.97;;
22768;SDS011;13001;51.968;5.918;2023-08-30T10:09:13;168.90;;;158.93;;
22768;SDS011;13001;51.968;5.918;2023-08-30T10:11:44;173.10;;;163.00;;
22768;SDS011;13001;51.968;5.918;2023-08-30T10:14:13;180.03;;;169.47;;
22768;SDS011;13001;51.968;5.918;2023-08-30T10:16:41;178.57;;;168.07;;
22768;SDS011;13001;51.968;5.918;2023-08-30T10:19:16;196.97;;;185.67;;
22768;SDS011;13001;51.968;5.918;2023-08-30T10:21:52;186.50;;;175.80;;
22768;SDS011;13001;51.968;5.918;2023-08-30T10:24:17;180.23;;;169.83;;
22768;SDS011;13001;51.968;5.918;2023-08-30T10:26:47;175.73;;;165.47;;
22768;SDS011;13001;51.968;5.918;2023-08-30T10:29:16;189.03;;;178.03;;
22768;SDS011;13001;51.968;5.918;2023-08-30T10:31:45;173.63;;;163.50;;
22768;SDS011;13001;51.968;5.918;2023-08-30T10:34:16;184.70;;;173.70;;
22768;SDS011;13001;51.968;5.918;2023-08-30T10:36:45;186.87;;;175.83;;
22768;SDS011;13001;51.968;5.918;2023-08-30T10:39:14;199.77;;;188.17;;
22768;SDS011;13001;51.968;5.918;2023-08-30T10:41:55;200.83;;;189.13;;
22768;SDS011;13001;51.968;5.918;2023-08-30T10:44:23;202.70;;;190.60;;
22768;SDS011;13001;51.968;5.918;2023-08-30T10:46:54;197.20;;;185.83;;
22768;SDS011;13001;51.968;5.918;2023-08-30T10:49:22;195.17;;;183.93;;
22768;SDS011;13001;51.968;5.918;2023-08-30T10:52:00;201.17;;;189.67;;
22768;SDS011;13001;51.968;5.918;2023-08-30T10:54:36;198.40;;;186.50;;
22768;SDS011;13001;51.968;5.918;2023-08-30T10:56:58;200.43;;;188.93;;
22768;SDS011;13001;51.968;5.918;2023-08-30T10:59:27;168.40;;;158.60;;
22768;SDS011;13001;51.968;5.918;2023-08-30T11:01:56;163.73;;;153.83;;
22768;SDS011;13001;51.968;5.918;2023-08-30T11:04:27;186.50;;;175.23;;
22768;SDS011;13001;51.968;5.918;2023-08-30T11:06:55;237.32;;;223.32;;
22768;SDS011;13001;51.968;5.918;2023-08-30T11:09:23;264.90;;;249.67;;
22768;SDS011;13001;51.968;5.918;2023-08-30T11:11:52;239.20;;;225.45;;
22768;SDS011;13001;51.968;5.918;2023-08-30T11:14:19;240.90;;;227.07;;
22768;SDS011;13001;51.968;5.918;2023-08-30T11:16:47;244.53;;;230.37;;
22768;SDS011;13001;51.968;5.918;2023-08-30T11:19:14;237.17;;;223.18;;
22768;SDS011;13001;51.968;5.918;2023-08-30T11:21:43;249.58;;;234.77;;
22768;SDS011;13001;51.968;5.918;2023-08-30T11:24:11;241.23;;;226.67;;
22768;SDS011;13001;51.968;5.918;2023-08-30T11:26:39;248.82;;;233.87;;
22768;SDS011;13001;51.968;5.918;2023-08-30T11:29:07;242.25;;;227.57;;
22768;SDS011;13001;51.968;5.918;2023-08-30T11:31:35;249.25;;;234.52;;
22768;SDS011;13001;51.968;5.918;2023-08-30T11:34:03;276.00;;;259.57;;
22768;SDS011;13001;51.968;5.918;2023-08-30T11:36:31;275.60;;;259.32;;
22768;SDS011;13001;51.968;5.918;2023-08-30T11:39:00;272.70;;;256.80;;
22768;SDS011;13001;51.968;5.918;2023-08-30T11:41:29;257.27;;;242.22;;
22768;SDS011;13001;51.968;5.918;2023-08-30T11:43:58;267.20;;;251.62;;
22768;SDS011;13001;51.968;5.918;2023-08-30T11:46:27;271.68;;;255.32;;
22768;SDS011;13001;51.968;5.918;2023-08-30T11:48:57;264.38;;;248.93;;
22768;SDS011;13001;51.968;5.918;2023-08-30T11:51:26;268.75;;;252.80;;
22768;SDS011;13001;51.968;5.918;2023-08-30T11:53:53;243.95;;;228.88;;
22768;SDS011;13001;51.968;5.918;2023-08-30T11:56:23;234.98;;;220.33;;
22768;SDS011;13001;51.968;5.918;2023-08-30T11:58:51;219.37;;;205.92;;
22768;SDS011;13001;51.968;5.918;2023-08-30T12:01:18;221.97;;;208.40;;
22768;SDS011;13001;51.968;5.918;2023-08-30T12:03:46;222.88;;;209.20;;
22768;SDS011;13001;51.968;5.918;2023-08-30T12:06:15;237.97;;;223.65;;
22768;SDS011;13001;51.968;5.918;2023-08-30T12:08:43;255.85;;;240.00;;
22768;SDS011;13001;51.968;5.918;2023-08-30T12:11:23;271.55;;;254.93;;
22768;SDS011;13001;51.968;5.918;2023-08-30T12:13:47;277.00;;;260.75;;
22768;SDS011;13001;51.968;5.918;2023-08-30T12:16:16;272.77;;;256.82;;
22768;SDS011;13001;51.968;5.918;2023-08-30T12:18:45;304.73;;;286.90;;
22768;SDS011;13001;51.968;5.918;2023-08-30T12:21:15;298.55;;;281.30;;
22768;SDS011;13001;51.968;5.918;2023-08-30T12:23:43;300.90;;;283.50;;
22768;SDS011;13001;51.968;5.918;2023-08-30T12:26:10;309.27;;;290.80;;
22768;SDS011;13001;51.968;5.918;2023-08-30T12:28:39;318.73;;;299.37;;
22768;SDS011;13001;51.968;5.918;2023-08-30T12:31:10;304.50;;;286.15;;
22768;SDS011;13001;51.968;5.918;2023-08-30T12:33:37;288.35;;;271.20;;
22768;SDS011;13001;51.968;5.918;2023-08-30T12:36:06;269.82;;;253.55;;
22768;SDS011;13001;51.968;5.918;2023-08-30T12:38:34;237.42;;;222.98;;
22768;SDS011;13001;51.968;5.918;2023-08-30T12:41:02;248.47;;;232.00;;
22768;SDS011;13001;51.968;5.918;2023-08-30T12:43:29;236.22;;;221.07;;
22768;SDS011;13001;51.968;5.918;2023-08-30T12:45:57;241.65;;;225.62;;
22768;SDS011;13001;51.968;5.918;2023-08-30T12:48:24;219.82;;;205.95;;
22768;SDS011;13001;51.968;5.918;2023-08-30T12:50:52;244.50;;;228.50;;
22768;SDS011;13001;51.968;5.918;2023-08-30T12:53:20;238.47;;;223.18;;
22768;SDS011;13001;51.968;5.918;2023-08-30T12:55:47;213.00;;;199.80;;
22768;SDS011;13001;51.968;5.918;2023-08-30T12:58:15;227.18;;;213.70;;
22768;SDS011;13001;51.968;5.918;2023-08-30T13:00:42;285.93;;;268.80;;
22768;SDS011;13001;51.968;5.918;2023-08-30T13:03:10;289.63;;;272.25;;
22768;SDS011;13001;51.968;5.918;2023-08-30T13:05:37;315.48;;;296.57;;
22768;SDS011;13001;51.968;5.918;2023-08-30T13:08:06;272.12;;;255.72;;
22768;SDS011;13001;51.968;5.918;2023-08-30T13:10:34;258.13;;;242.28;;
22768;SDS011;13001;51.968;5.918;2023-08-30T13:13:01;298.80;;;280.50;;
22768;SDS011;13001;51.968;5.918;2023-08-30T13:15:29;295.70;;;278.20;;
22768;SDS011;13001;51.968;5.918;2023-08-30T13:17:57;309.67;;;291.32;;
22768;SDS011;13001;51.968;5.918;2023-08-30T13:20:24;332.95;;;312.57;;
22768;SDS011;13001;51.968;5.918;2023-08-30T13:22:52;326.02;;;305.92;;
22768;SDS011;13001;51.968;5.918;2023-08-30T13:25:20;353.77;;;331.68;;
22768;SDS011;13001;51.968;5.918;2023-08-30T13:27:48;368.88;;;345.50;;
22768;SDS011;13001;51.968;5.918;2023-08-30T13:30:17;420.30;;;393.70;;
22768;SDS011;13001;51.968;5.918;2023-08-30T13:32:44;418.55;;;391.88;;
22768;SDS011;13001;51.968;5.918;2023-08-30T13:35:12;396.60;;;371.52;;
22768;SDS011;13001;51.968;5.918;2023-08-30T13:37:41;444.52;;;415.47;;
22768;SDS011;13001;51.968;5.918;2023-08-30T13:40:08;400.18;;;375.13;;
22768;SDS011;13001;51.968;5.918;2023-08-30T13:42:38;364.70;;;341.73;;
22768;SDS011;13001;51.968;5.918;2023-08-30T13:45:05;332.43;;;312.10;;
22768;SDS011;13001;51.968;5.918;2023-08-30T13:47:35;343.00;;;321.25;;
22768;SDS011;13001;51.968;5.918;2023-08-30T13:50:05;408.30;;;382.15;;
22768;SDS011;13001;51.968;5.918;2023-08-30T13:52:34;434.52;;;407.30;;
22768;SDS011;13001;51.968;5.918;2023-08-30T13:55:02;441.55;;;413.50;;
22768;SDS011;13001;51.968;5.918;2023-08-30T13:57:31;448.20;;;420.18;;
22768;SDS011;13001;51.968;5.918;2023-08-30T13:59:58;417.80;;;392.48;;
22768;SDS011;13001;51.968;5.918;2023-08-30T14:02:27;424.30;;;398.52;;
22768;SDS011;13001;51.968;5.918;2023-08-30T14:04:55;423.65;;;398.02;;
22768;SDS011;13001;51.968;5.918;2023-08-30T14:07:22;429.25;;;402.55;;
22768;SDS011;13001;51.968;5.918;2023-08-30T14:09:50;411.38;;;386.50;;